Time;durP1;ratioP1;P1;durP2;ratioP2;P2;SDS_P1;SDS_P2;PMS_P1;PMS_P2;Temp;Humidity;BMP_temperature;BMP_pressure;BME280_temperature;BME280_humidity;BME280_pressure;Samples;Min_cycle;Max_cycle;Signal;HPM_P1;HPM_P2
2023/01/15 00:02:21;;;;;;;;;;;;;;;16.36;47.71;101558.13;5065924;28;1913;-44
2023/01/15 00:04:49;;;;;;;;;;;;;;;15.83;49.29;101552.94;5057183;28;1132;-46
2023/01/15 00:07:14;;;;;;;;;;;;;;;15.88;49.12;101555.78;5078187;28;1074;-50
2023/01/15 00:09:40;;;;;;;;;;;;;;;17.36;45.60;101548.88;5072093;28;1190;-45
2023/01/15 00:12:05;;;;;;;;;;;;;;;16.31;48.08;101550.63;5067209;28;1016;-48
2023/01/15 00:14:30;;;;;;;;;;;;;;;15.83;49.32;101546.63;5064975;28;1185;-48
2023/01/15 00:16:56;;;;;;;;;;;;;;;16.89;46.70;101551.16;5071369;28;1852;-47
2023/01/15 00:19:21;;;;;;;;;;;;;;;16.75;46.91;101547.94;5076617;28;1002;-47
2023/01/15 00:21:47;;;;;;;;;;;;;;;16.02;48.81;101539.81;5066092;28;1978;-43
2023/01/15 00:29:40;;;;;;;;;;;;;;;15.96;48.94;101548.19;5071602;28;949;-46
2023/01/15 00:32:06;;;;;;;;;;;;;;;15.67;49.75;101560.06;5040990;28;1834;-45
2023/01/15 00:34:31;;;;;;;;;;;;;;;16.18;48.38;101545.53;5077759;28;1004;-48
2023/01/15 00:36:58;;;;;;;;;;;;;;;17.42;45.38;101545.13;5046614;28;1342;-47
2023/01/15 00:39:24;;;;;;;;;;;;;;;16.28;48.04;101542.91;5067445;28;1337;-44
2023/01/15 00:41:51;;;;;;;;;;;;;;;15.87;49.28;101554.09;5064057;28;1980;-47
2023/01/15 00:44:16;;;;;;;;;;;;;;;17.27;45.82;101543.84;5039954;28;1401;-47
2023/01/15 00:46:41;;;;;;;;;;;;;;;16.29;48.25;101550.06;5071717;28;1095;-45
2023/01/15 00:49:07;;;;;;;;;;;;;;;15.86;49.27;101551.59;5040524;28;2558;-45
2023/01/15 00:51:33;;;;;;;;;;;;;;;15.74;49.71;101549.75;5070799;28;1039;-48
2023/01/15 00:53:59;;;;;;;;;;;;;;;17.24;45.74;101549.06;5040435;28;1151;-48
2023/01/15 00:56:24;;;;;;;;;;;;;;;16.24;48.25;101553.56;5040646;28;1182;-47
2023/01/15 00:58:51;;;;;;;;;;;;;;;15.78;49.22;101549.25;5077425;28;905;-47
2023/01/15 01:01:16;;;;;;;;;;;;;;;16.03;48.82;101552.44;5046062;28;1985;-43
2023/01/15 01:03:42;;;;;;;;;;;;;;;17.31;45.57;101546.09;5052529;28;1543;-49
2023/01/15 01:06:09;;;;;;;;;;;;;;;16.21;48.06;101531.28;5053629;28;1103;-44
2023/01/15 01:08:34;;;;;;;;;;;;;;;15.79;49.47;101545.44;5057620;28;1043;-44
2023/01/15 01:11:06;;;;;;;;;;;;;;;16.77;46.97;101540.28;5070366;28;1053;-45
2023/01/15 01:13:32;;;;;;;;;;;;;;;16.77;46.66;101533.94;5077087;28;1031;-45
2023/01/15 01:15:57;;;;;;;;;;;;;;;16.04;48.74;101528.56;5045134;28;1175;-43
2023/01/15 01:18:23;;;;;;;;;;;;;;;15.68;49.40;101525.22;5071061;28;2672;-46
2023/01/15 01:20:49;;;;;;;;;;;;;;;16.26;48.38;101525.88;5075696;28;1914;-45
2023/01/15 01:23:14;;;;;;;;;;;;;;;17.38;45.28;101525.56;5054003;28;1202;-47
2023/01/15 01:25:40;;;;;;;;;;;;;;;16.25;47.96;101524.22;5063815;28;1059;-44
2023/01/15 01:28:05;;;;;;;;;;;;;;;15.79;49.08;101518.00;5076538;28;967;-45
2023/01/15 01:30:30;;;;;;;;;;;;;;;16.12;48.81;101532.78;5058527;28;1190;-44
2023/01/15 01:32:56;;;;;;;;;;;;;;;17.20;45.75;101531.44;5064897;28;1048;-45
2023/01/15 01:35:22;;;;;;;;;;;;;;;16.12;48.42;101539.13;5058057;28;1604;-47
2023/01/15 01:37:50;;;;;;;;;;;;;;;15.73;49.56;101534.38;5039474;28;1209;-45
2023/01/15 01:40:16;;;;;;;;;;;;;;;16.23;48.60;101538.19;5071939;28;1135;-45
2023/01/15 01:42:41;;;;;;;;;;;;;;;17.54;45.13;101529.25;5046784;28;1906;-47
2023/01/15 01:45:11;;;;;;;;;;;;;;;16.39;47.75;101530.97;5062992;28;1131;-46
2023/01/15 01:47:37;;;;;;;;;;;;;;;15.88;49.21;101543.97;5048105;28;2423;-45
2023/01/15 01:50:04;;;;;;;;;;;;;;;15.66;49.86;101536.44;5040609;28;1132;-45
2023/01/15 01:52:50;;;;;;;;;;;;;;;16.85;46.82;101535.41;5051090;28;1206;-47
2023/01/15 01:55:16;;;;;;;;;;;;;;;16.57;47.19;101540.84;5056135;28;1655;-47
2023/01/15 01:57:42;;;;;;;;;;;;;;;15.90;48.92;101531.66;5047933;28;1191;-45
2023/01/15 02:00:09;;;;;;;;;;;;;;;15.60;49.68;101531.97;5072163;28;900;-45
2023/01/15 02:02:42;;;;;;;;;;;;;;;15.99;49.17;101543.06;5068956;28;1910;-45
2023/01/15 02:05:08;;;;;;;;;;;;;;;17.39;45.36;101538.22;5036232;28;1115;-43
2023/01/15 02:07:33;;;;;;;;;;;;;;;16.27;48.15;101541.28;5050653;28;1012;-44
2023/01/15 02:09:59;;;;;;;;;;;;;;;15.84;48.96;101534.59;5062623;28;1103;-49
2023/01/15 02:12:27;;;;;;;;;;;;;;;15.52;50.08;101540.59;5058682;28;1166;-44
2023/01/15 02:14:54;;;;;;;;;;;;;;;16.81;46.78;101542.50;5076398;28;1051;-44
2023/01/15 02:17:22;;;;;;;;;;;;;;;16.67;46.92;101534.63;5041589;28;2442;-44
2023/01/15 02:20:07;;;;;;;;;;;;;;;15.91;48.76;101538.00;5038635;28;1060;-47
2023/01/15 02:22:33;;;;;;;;;;;;;;;15.59;49.92;101541.28;5043268;28;1985;-47
2023/01/15 02:25:11;;;;;;;;;;;;;;;17.10;46.22;101540.41;5049371;28;1240;-44
2023/01/15 02:27:37;;;;;;;;;;;;;;;16.60;47.34;101539.50;5042221;28;1123;-49
2023/01/15 02:30:14;;;;;;;;;;;;;;;15.96;48.86;101534.47;5047592;28;1115;-47
2023/01/15 02:32:54;;;;;;;;;;;;;;;15.56;50.00;101526.16;5058458;28;1327;-48
2023/01/15 02:35:48;;;;;;;;;;;;;;;16.62;47.23;101522.75;5054723;28;1416;-48
2023/01/15 02:38:15;;;;;;;;;;;;;;;17.07;46.24;101522.50;5060521;28;1092;-47
2023/01/15 02:40:43;;;;;;;;;;;;;;;16.13;48.25;101524.34;5039376;28;1921;-49
2023/01/15 02:43:09;;;;;;;;;;;;;;;15.74;49.38;101525.06;5050108;28;1095;-46
2023/01/15 02:45:35;;;;;;;;;;;;;;;15.82;49.58;101529.34;5053031;28;1272;-49
2023/01/15 02:48:11;;;;;;;;;;;;;;;17.20;45.73;101523.19;5042584;28;2436;-45
2023/01/15 02:50:38;;;;;;;;;;;;;;;16.14;48.41;101525.16;5044172;28;1705;-46
2023/01/15 02:53:04;;;;;;;;;;;;;;;15.77;49.43;101522.91;5058039;28;1115;-45
2023/01/15 02:55:34;;;;;;;;;;;;;;;16.89;46.81;101520.13;5042120;28;1156;-48
2023/01/15 02:58:01;;;;;;;;;;;;;;;16.81;46.69;101518.59;5058030;28;1168;-43
2023/01/15 03:00:28;;;;;;;;;;;;;;;16.01;48.50;101516.19;5040928;28;1200;-42
2023/01/15 03:03:01;;;;;;;;;;;;;;;15.66;49.73;101517.25;5044579;28;1975;-45
2023/01/15 03:05:35;;;;;;;;;;;;;;;16.53;47.59;101519.66;5067189;28;1102;-47
2023/01/15 03:08:01;;;;;;;;;;;;;;;16.66;46.99;101518.41;5054241;28;1211;-44
2023/01/15 03:10:37;;;;;;;;;;;;;;;15.91;48.87;101516.03;5049083;28;1406;-45
2023/01/15 03:13:02;;;;;;;;;;;;;;;15.77;49.54;101525.63;5053603;28;1004;-44
2023/01/15 03:18:43;;;;;;;;;;;;;;;16.21;48.12;101515.63;5048013;28;2520;-46
2023/01/15 03:21:09;;;;;;;;;;;;;;;15.75;49.42;101512.19;5037042;28;1914;-45
2023/01/15 03:23:36;;;;;;;;;;;;;;;16.61;47.40;101510.97;5047571;28;1293;-46
2023/01/15 03:26:02;;;;;;;;;;;;;;;16.79;46.71;101511.69;5053334;28;1134;-44
2023/01/15 03:28:28;;;;;;;;;;;;;;;16.00;48.75;101517.25;5066919;28;1012;-48
2023/01/15 03:30:53;;;;;;;;;;;;;;;15.73;49.68;101520.66;5040152;28;1271;-46
2023/01/15 03:33:19;;;;;;;;;;;;;;;17.33;45.66;101514.50;5037504;28;1087;-49
2023/01/15 03:35:57;;;;;;;;;;;;;;;16.39;47.82;101519.19;5047874;28;1206;-46
2023/01/15 03:38:34;;;;;;;;;;;;;;;15.83;48.97;101524.69;5057598;28;1288;-44
2023/01/15 03:41:06;;;;;;;;;;;;;;;16.95;46.45;101519.06;5047933;28;1985;-45
2023/01/15 03:43:42;;;;;;;;;;;;;;;16.81;46.78;101524.09;5059975;28;1174;-46
2023/01/15 03:46:12;;;;;;;;;;;;;;;16.03;48.69;101525.00;5050897;28;1177;-50
2023/01/15 03:48:43;;;;;;;;;;;;;;;15.70;49.33;101526.66;5045561;28;2362;-44
2023/01/15 03:51:13;;;;;;;;;;;;;;;17.19;46.10;101524.25;5035425;28;1186;-46
2023/01/15 03:53:40;;;;;;;;;;;;;;;16.76;46.79;101532.28;5057041;28;996;-48
2023/01/15 03:56:06;;;;;;;;;;;;;;;16.07;48.69;101542.63;5052485;28;1317;-46
2023/01/15 03:58:39;;;;;;;;;;;;;;;15.72;49.50;101540.09;5047660;28;1222;-50
2023/01/15 04:01:11;;;;;;;;;;;;;;;17.23;45.85;101544.66;5053782;28;1913;-47
2023/01/15 04:03:37;;;;;;;;;;;;;;;16.48;47.58;101542.38;5047605;28;1619;-48
2023/01/15 04:06:04;;;;;;;;;;;;;;;15.88;49.21;101547.53;5060609;28;1064;-44
2023/01/15 04:08:34;;;;;;;;;;;;;;;15.63;49.89;101547.94;5041104;28;1278;-49
2023/01/15 04:11:00;;;;;;;;;;;;;;;15.45;50.09;101546.25;5054392;28;1092;-48
2023/01/15 04:13:29;;;;;;;;;;;;;;;16.92;46.72;101544.31;5060980;28;1143;-48
2023/01/15 04:15:54;;;;;;;;;;;;;;;16.75;46.88;101547.94;5065054;28;1032;-46
2023/01/15 04:18:20;;;;;;;;;;;;;;;15.93;49.11;101543.22;5075109;28;1848;-46
2023/01/15 04:20:46;;;;;;;;;;;;;;;15.60;49.73;101542.94;5033780;28;1901;-46
2023/01/15 04:23:12;;;;;;;;;;;;;;;16.80;47.13;101544.41;5060078;28;1207;-48
2023/01/15 04:25:38;;;;;;;;;;;;;;;16.69;46.81;101537.97;5077990;28;1377;-48
2023/01/15 04:28:03;;;;;;;;;;;;;;;15.91;49.05;101538.00;5076176;28;1055;-47
2023/01/15 04:30:29;;;;;;;;;;;;;;;15.64;49.73;101526.81;5058280;28;1174;-48
2023/01/15 04:32:54;;;;;;;;;;;;;;;17.13;46.17;101525.31;5058508;28;1178;-47
2023/01/15 04:35:20;;;;;;;;;;;;;;;16.60;47.27;101525.78;5058365;28;1092;-49
2023/01/15 04:37:46;;;;;;;;;;;;;;;15.97;48.93;101520.50;5065906;28;1028;-48
2023/01/15 04:44:05;;;;;;;;;;;;;;;15.69;49.42;101524.97;5063678;28;1126;-48
2023/01/15 04:45:43;;;;;;;;;;;;;;;16.45;47.64;101531.06;5075925;28;1152;-46
2023/01/15 04:48:09;;;;;;;;;;;;;;;15.86;49.19;101532.41;5076530;28;2375;-48
2023/01/15 04:50:34;;;;;;;;;;;;;;;15.66;49.71;101530.97;5073845;28;1142;-45
2023/01/15 04:53:00;;;;;;;;;;;;;;;17.24;45.96;101532.56;5071191;28;1223;-48
2023/01/15 04:55:25;;;;;;;;;;;;;;;16.56;47.22;101538.34;5058031;28;1083;-48
2023/01/15 04:57:51;;;;;;;;;;;;;;;15.95;48.74;101536.41;5062850;28;1099;-49
2023/01/15 05:00:17;;;;;;;;;;;;;;;16.05;48.72;101541.22;5064965;28;1159;-50
2023/01/15 05:02:42;;;;;;;;;;;;;;;17.45;45.05;101550.09;5070909;28;1914;-48
2023/01/15 05:05:07;;;;;;;;;;;;;;;16.38;47.65;101548.56;5057212;28;999;-48
2023/01/15 05:07:33;;;;;;;;;;;;;;;15.90;48.89;101556.34;5070641;28;1106;-46
2023/01/15 05:09:58;;;;;;;;;;;;;;;15.60;49.56;101556.66;5070081;28;1098;-48
2023/01/15 05:12:25;;;;;;;;;;;;;;;15.55;49.84;101562.03;5058335;28;1191;-45
2023/01/15 05:14:50;;;;;;;;;;;;;;;17.14;46.02;101552.53;5070275;28;1093;-49
2023/01/15 05:17:15;;;;;;;;;;;;;;;16.51;47.16;101560.22;5058236;28;1891;-44
2023/01/15 05:19:41;;;;;;;;;;;;;;;15.87;49.13;101558.75;5070220;28;1108;-45
2023/01/15 05:22:07;;;;;;;;;;;;;;;15.62;49.82;101562.69;5057935;28;1906;-43
2023/01/15 05:24:32;;;;;;;;;;;;;;;17.19;45.83;101560.81;5056928;28;1107;-45
2023/01/15 05:26:57;;;;;;;;;;;;;;;16.57;47.37;101565.53;5057764;28;1072;-44
2023/01/15 05:29:23;;;;;;;;;;;;;;;15.95;48.69;101566.56;5070005;28;1199;-46
2023/01/15 05:31:49;;;;;;;;;;;;;;;15.73;49.30;101563.72;5069409;28;1082;-47
2023/01/15 05:34:14;;;;;;;;;;;;;;;17.28;45.69;101562.00;5063555;28;1079;-48
2023/01/15 05:36:40;;;;;;;;;;;;;;;16.42;47.79;101568.94;5076360;28;1012;-48
2023/01/15 05:39:05;;;;;;;;;;;;;;;15.89;48.79;101567.56;5073951;28;1074;-48
2023/01/15 05:41:49;;;;;;;;;;;;;;;16.57;47.52;101567.47;5060340;28;1897;-49
2023/01/15 05:44:32;;;;;;;;;;;;;;;16.80;46.68;101579.28;5057288;28;1000;-46
2023/01/15 05:47:01;;;;;;;;;;;;;;;15.98;48.86;101568.81;5063448;28;1991;-46
2023/01/15 05:49:27;;;;;;;;;;;;;;;15.94;48.84;101564.91;5072376;28;857;-48
2023/01/15 05:51:52;;;;;;;;;;;;;;;17.50;44.97;101568.53;5077195;28;1040;-47
2023/01/15 05:54:21;;;;;;;;;;;;;;;16.64;47.10;101562.63;5074405;28;1094;-51
2023/01/15 05:56:47;;;;;;;;;;;;;;;15.98;48.64;101560.59;5056890;28;1031;-47
2023/01/15 05:59:13;;;;;;;;;;;;;;;15.70;49.45;101567.78;5071613;28;1565;-49
2023/01/15 06:01:39;;;;;;;;;;;;;;;16.97;46.37;101565.50;5067777;28;1963;-46
2023/01/15 06:04:04;;;;;;;;;;;;;;;16.84;46.63;101556.53;5071257;28;1081;-47
2023/01/15 06:06:30;;;;;;;;;;;;;;;16.03;48.69;101568.06;5076691;28;1051;-47
2023/01/15 06:08:55;;;;;;;;;;;;;;;15.70;49.31;101570.53;5075126;28;1044;-46
2023/01/15 06:11:21;;;;;;;;;;;;;;;17.25;45.73;101569.94;5080858;28;936;-46
2023/01/15 06:13:46;;;;;;;;;;;;;;;16.54;47.33;101570.72;5068212;28;971;-46
2023/01/15 06:16:12;;;;;;;;;;;;;;;15.92;48.69;101572.53;5057625;28;1104;-49
2023/01/15 06:18:38;;;;;;;;;;;;;;;15.67;49.62;101565.53;5068562;28;2252;-46
2023/01/15 06:21:04;;;;;;;;;;;;;;;15.92;48.92;101556.09;5062465;28;1897;-47
2023/01/15 06:23:29;;;;;;;;;;;;;;;16.73;46.67;101568.47;5067634;28;1087;-49
2023/01/15 06:25:58;;;;;;;;;;;;;;;15.86;48.99;101568.06;5056704;28;917;-48
2023/01/15 06:28:23;;;;;;;;;;;;;;;15.49;48.69;101574.81;5074575;28;1028;-48
2023/01/15 06:30:49;;;;;;;;;;;;;;;15.24;48.67;101575.19;5064461;28;1003;-46
2023/01/15 06:33:14;;;;;;;;;;;;;;;15.18;48.16;101562.44;5066206;28;1007;-49
2023/01/15 06:35:39;;;;;;;;;;;;;;;14.91;48.22;101565.75;5059276;28;1036;-47
2023/01/15 06:38:05;;;;;;;;;;;;;;;15.70;48.21;101558.72;5074913;28;913;-46
2023/01/15 06:40:30;;;;;;;;;;;;;;;15.24;48.72;101547.78;5065948;28;1271;-47
2023/01/15 06:48:27;;;;;;;;;;;;;;;15.54;48.58;101555.72;5063084;28;1876;-44
2023/01/15 06:50:52;;;;;;;;;;;;;;;15.03;48.69;101558.34;5056227;28;1148;-48
2023/01/15 06:53:18;;;;;;;;;;;;;;;14.92;48.09;101553.75;5070710;28;1131;-44
2023/01/15 06:55:44;;;;;;;;;;;;;;;16.33;47.46;101551.22;5067497;28;1087;-47
2023/01/15 06:58:09;;;;;;;;;;;;;;;15.41;48.74;101556.03;5050892;28;1104;-42
2023/01/15 07:00:34;;;;;;;;;;;;;;;15.09;48.52;101561.19;5055726;28;1017;-46
2023/01/15 07:03:00;;;;;;;;;;;;;;;14.98;47.86;101558.22;5071165;28;1983;-42
2023/01/15 07:05:25;;;;;;;;;;;;;;;14.94;47.55;101561.72;5072798;28;1146;-45
2023/01/15 07:07:51;;;;;;;;;;;;;;;15.32;48.61;101555.59;5061322;28;1000;-48
2023/01/15 07:10:16;;;;;;;;;;;;;;;15.01;48.38;101560.50;5053339;28;1054;-47
2023/01/15 07:12:42;;;;;;;;;;;;;;;14.73;48.18;101565.94;5075182;28;1099;-45
2023/01/15 07:15:07;;;;;;;;;;;;;;;14.80;48.14;101561.16;5075673;28;980;-47
2023/01/15 07:17:33;;;;;;;;;;;;;;;15.69;47.90;101563.38;5041768;28;2086;-48
2023/01/15 07:19:58;;;;;;;;;;;;;;;15.04;48.64;101568.22;5078177;28;1143;-47
2023/01/15 07:22:24;;;;;;;;;;;;;;;14.86;48.21;101561.03;5059291;28;1988;-47
2023/01/15 07:24:49;;;;;;;;;;;;;;;15.73;47.88;101564.53;5059301;28;1040;-47
2023/01/15 07:27:14;;;;;;;;;;;;;;;15.23;48.62;101559.81;5065837;28;1271;-44
2023/01/15 07:29:40;;;;;;;;;;;;;;;15.28;48.95;101559.06;5066398;28;1080;-45
2023/01/15 07:32:05;;;;;;;;;;;;;;;16.35;47.36;101560.03;5074070;28;1194;-47
2023/01/15 07:34:31;;;;;;;;;;;;;;;15.35;49.09;101557.03;5059554;28;1011;-48
2023/01/15 07:36:56;;;;;;;;;;;;;;;15.03;48.52;101552.88;5059186;28;1171;-43
2023/01/15 07:39:22;;;;;;;;;;;;;;;14.85;48.07;101555.78;5060309;28;1236;-46
2023/01/15 07:50:05;;;;;;;;;;;;;;;15.10;48.79;101560.13;5070876;28;1166;-48
2023/01/15 07:52:30;;;;;;;;;;;;;;;15.45;49.02;101562.69;5069753;28;1066;-46
2023/01/15 07:54:56;;;;;;;;;;;;;;;15.08;48.84;101567.72;5059390;28;1005;-47
2023/01/15 07:57:22;;;;;;;;;;;;;;;14.90;47.98;101555.91;5067521;28;1121;-45
2023/01/15 07:59:48;;;;;;;;;;;;;;;15.32;48.31;101557.50;5063097;28;1096;-46
2023/01/15 08:02:13;;;;;;;;;;;;;;;15.51;48.54;101555.38;5075016;28;1979;-46
2023/01/15 08:04:39;;;;;;;;;;;;;;;15.05;48.56;101553.47;5079042;28;1058;-44
2023/01/15 08:07:04;;;;;;;;;;;;;;;15.44;48.45;101554.72;5062420;28;1186;-46
2023/01/15 08:09:30;;;;;;;;;;;;;;;15.44;48.73;101558.28;5069918;28;1008;-46
2023/01/15 08:17:25;;;;;;;;;;;;;;;15.30;49.03;101571.44;5060043;28;1845;-49
2023/01/15 08:19:50;;;;;;;;;;;;;;;15.09;48.33;101559.28;5070122;28;1071;-45
2023/01/15 08:22:15;;;;;;;;;;;;;;;14.87;48.15;101553.63;5065227;28;1909;-45
2023/01/15 08:24:41;;;;;;;;;;;;;;;16.29;47.28;101560.22;5066544;28;1474;-47
2023/01/15 08:27:06;;;;;;;;;;;;;;;15.21;49.00;101561.97;5060195;28;997;-48
2023/01/15 08:29:32;;;;;;;;;;;;;;;15.03;48.37;101565.75;5069409;28;1020;-47
2023/01/15 08:31:57;;;;;;;;;;;;;;;15.65;48.46;101562.19;5076537;28;1067;-46
2023/01/15 08:34:23;;;;;;;;;;;;;;;16.54;47.17;101559.75;5065385;28;1210;-46
2023/01/15 08:36:48;;;;;;;;;;;;;;;17.61;45.46;101562.03;5064865;28;1013;-46
2023/01/15 08:39:14;;;;;;;;;;;;;;;16.05;48.64;101561.25;5065791;28;1131;-46
2023/01/15 08:41:39;;;;;;;;;;;;;;;15.56;49.01;101561.78;5075932;28;1933;-45
2023/01/15 08:44:05;;;;;;;;;;;;;;;15.42;48.35;101556.84;5058515;28;1147;-48
2023/01/15 08:46:30;;;;;;;;;;;;;;;15.25;47.92;101551.34;5066922;28;1082;-47
2023/01/15 08:48:56;;;;;;;;;;;;;;;16.21;48.09;101556.81;5076967;28;2046;-47
2023/01/15 08:51:21;;;;;;;;;;;;;;;15.51;48.81;101549.91;5074279;28;1286;-48
2023/01/15 08:53:47;;;;;;;;;;;;;;;15.21;48.60;101545.53;5077796;28;1289;-46
2023/01/15 08:56:13;;;;;;;;;;;;;;;15.45;48.33;101548.16;5068940;28;1059;-51
2023/01/15 08:58:38;;;;;;;;;;;;;;;15.66;48.51;101552.09;5073535;28;1108;-52
2023/01/15 09:01:04;;;;;;;;;;;;;;;15.14;48.58;101536.66;5068702;28;1918;-52
2023/01/15 09:03:30;;;;;;;;;;;;;;;14.99;48.19;101538.00;5075483;28;1035;-46
2023/01/15 09:05:59;;;;;;;;;;;;;;;15.43;48.22;101536.59;5045434;28;1016;-47
2023/01/15 09:08:25;;;;;;;;;;;;;;;15.90;48.34;101541.81;5071308;28;1068;-49
2023/01/15 09:10:50;;;;;;;;;;;;;;;15.27;48.79;101538.25;5065361;28;1083;-43
2023/01/15 09:13:15;;;;;;;;;;;;;;;15.04;48.19;101527.16;5075397;28;1199;-47
2023/01/15 09:15:41;;;;;;;;;;;;;;;14.97;47.61;101523.72;5070832;28;977;-50
2023/01/15 09:18:09;;;;;;;;;;;;;;;15.83;47.80;101535.66;5057302;28;1808;-47
2023/01/15 09:20:35;;;;;;;;;;;;;;;15.54;48.68;101525.56;5057607;28;1008;-50
2023/01/15 09:23:00;;;;;;;;;;;;;;;15.09;48.58;101531.88;5070381;28;1984;-49
2023/01/15 09:25:25;;;;;;;;;;;;;;;14.96;48.13;101523.97;5073409;28;1766;-44
2023/01/15 09:27:54;;;;;;;;;;;;;;;14.83;47.78;101523.19;5059318;28;1150;-48
2023/01/15 09:30:19;;;;;;;;;;;;;;;16.17;47.31;101516.41;5065739;28;1057;-44
2023/01/15 09:32:45;;;;;;;;;;;;;;;15.31;48.81;101518.31;5075028;28;1206;-45
2023/01/15 09:35:10;;;;;;;;;;;;;;;15.44;49.00;101513.59;5077787;28;1182;-44
2023/01/15 09:37:35;;;;;;;;;;;;;;;16.05;47.83;101506.38;5057945;28;1019;-44
2023/01/15 09:40:02;;;;;;;;;;;;;;;15.37;48.76;101508.28;5071287;28;1178;-47
2023/01/15 09:42:31;;;;;;;;;;;;;;;15.05;48.46;101508.78;5062510;28;1968;-41
2023/01/15 09:45:12;;;;;;;;;;;;;;;15.97;47.92;101503.22;5057363;28;1047;-45
2023/01/15 09:47:39;;;;;;;;;;;;;;;15.17;48.76;101501.34;5054383;28;1073;-41
2023/01/15 09:50:23;;;;;;;;;;;;;;;16.66;46.91;101502.78;5058646;28;1064;-45
2023/01/15 09:52:48;;;;;;;;;;;;;;;15.91;48.38;101491.34;5053115;28;1116;-46
2023/01/15 09:55:15;;;;;;;;;;;;;;;15.40;48.65;101494.91;5063327;28;1070;-46
2023/01/15 09:57:40;;;;;;;;;;;;;;;15.22;48.04;101486.91;5054748;28;1144;-46
2023/01/15 10:00:06;;;;;;;;;;;;;;;15.13;47.77;101483.75;5073173;28;1131;-49
2023/01/15 10:02:57;;;;;;;;;;;;;;;14.94;47.46;101480.41;5054579;28;1914;-45
2023/01/15 10:05:32;;;;;;;;;;;;;;;15.56;47.64;101481.47;5075795;28;1414;-48
2023/01/15 10:08:16;;;;;;;;;;;;;;;15.43;48.54;101482.63;5071062;28;1226;-48
2023/01/15 10:10:45;;;;;;;;;;;;;;;15.02;48.51;101470.94;5067745;28;1235;-45
2023/01/15 10:13:22;;;;;;;;;;;;;;;15.40;48.55;101466.66;5066230;28;1400;-45
2023/01/15 10:15:47;;;;;;;;;;;;;;;15.42;48.79;101463.66;5046002;28;1576;-46
2023/01/15 10:18:14;;;;;;;;;;;;;;;15.09;48.56;101470.78;5066555;28;1286;-49
2023/01/15 10:20:48;;;;;;;;;;;;;;;16.28;47.33;101455.09;5067058;28;1298;-46
2023/01/15 10:23:35;;;;;;;;;;;;;;;15.29;48.69;101454.72;5066743;28;1198;-47
2023/01/15 10:26:02;;;;;;;;;;;;;;;14.93;48.58;101456.81;5066754;28;1254;-44
2023/01/15 10:28:28;;;;;;;;;;;;;;;15.23;48.46;101455.69;5046788;28;1258;-49
2023/01/15 10:30:54;;;;;;;;;;;;;;;15.46;48.63;101442.91;5066187;28;1309;-48
2023/01/15 10:33:39;;;;;;;;;;;;;;;15.11;48.39;101433.03;5064529;28;1171;-45
2023/01/15 10:36:12;;;;;;;;;;;;;;;16.34;47.05;101432.13;5059603;28;1183;-45
2023/01/15 10:38:50;;;;;;;;;;;;;;;15.33;48.91;101425.75;5055586;28;1056;-48
2023/01/15 10:41:34;;;;;;;;;;;;;;;15.06;48.27;101428.28;5059668;28;1999;-46
2023/01/15 10:43:59;;;;;;;;;;;;;;;16.29;47.53;101420.25;5063382;28;1036;-46
2023/01/15 10:46:32;;;;;;;;;;;;;;;15.63;48.52;101419.06;5056869;28;1020;-46
2023/01/15 10:49:23;;;;;;;;;;;;;;;15.13;48.85;101418.00;5069109;28;1035;-47
2023/01/15 10:51:50;;;;;;;;;;;;;;;16.16;47.87;101424.19;5052449;28;1561;-45
2023/01/15 10:54:15;;;;;;;;;;;;;;;15.30;48.79;101423.47;5069680;28;1175;-47
2023/01/15 10:57:00;;;;;;;;;;;;;;;15.13;48.10;101418.00;5066387;28;1218;-45
2023/01/15 10:59:37;;;;;;;;;;;;;;;15.99;47.98;101411.38;5056672;28;1146;-44
2023/01/15 11:02:02;;;;;;;;;;;;;;;15.21;48.90;101416.78;5070279;28;1910;-45
2023/01/15 11:04:28;;;;;;;;;;;;;;;15.04;48.37;101412.09;5057939;28;1103;-48
2023/01/15 11:06:54;;;;;;;;;;;;;;;14.92;47.84;101403.13;5056960;28;1039;-46
2023/01/15 11:09:21;;;;;;;;;;;;;;;14.81;47.36;101401.28;5063724;28;1071;-46
2023/01/15 11:20:35;;;;;;;;;;;;;;;15.87;47.99;101395.03;5058217;28;1032;-46
2023/01/15 11:23:13;;;;;;;;;;;;;;;15.15;48.86;101395.84;5076041;28;1897;-44
2023/01/15 11:25:43;;;;;;;;;;;;;;;15.80;48.26;101396.31;5056129;28;1044;-43
2023/01/15 11:28:09;;;;;;;;;;;;;;;15.32;48.86;101388.47;5038114;28;1338;-47
2023/01/15 11:30:38;;;;;;;;;;;;;;;16.69;46.79;101381.44;5063181;28;1032;-45
2023/01/15 11:33:04;;;;;;;;;;;;;;;16.78;47.06;101373.56;5055913;28;1068;-45
2023/01/15 11:35:30;;;;;;;;;;;;;;;15.70;48.90;101384.06;5038134;28;1063;-45
2023/01/15 11:38:03;;;;;;;;;;;;;;;15.40;48.63;101384.44;5046062;28;1167;-46
2023/01/15 11:40:28;;;;;;;;;;;;;;;15.17;48.31;101374.50;5072953;28;1221;-45
2023/01/15 11:51:26;;;;;;;;;;;;;;;16.12;47.70;101369.03;5064790;28;1056;-45
2023/01/15 11:53:53;;;;;;;;;;;;;;;15.20;49.18;101368.53;5069860;28;1082;-44
2023/01/15 11:56:20;;;;;;;;;;;;;;;15.15;48.13;101376.66;5064354;28;1062;-43
2023/01/15 11:58:50;;;;;;;;;;;;;;;15.97;47.77;101369.66;5055632;28;1103;-47
2023/01/15 12:01:34;;;;;;;;;;;;;;;15.55;48.51;101370.97;5070872;28;1962;-45
2023/01/15 12:04:00;;;;;;;;;;;;;;;15.10;48.44;101365.63;5068822;28;908;-44
2023/01/15 12:06:25;;;;;;;;;;;;;;;14.97;47.73;101367.63;5075692;28;1071;-48
2023/01/15 12:08:51;;;;;;;;;;;;;;;15.48;48.08;101359.34;5069279;28;1135;-46
2023/01/15 12:11:30;;;;;;;;;;;;;;;15.68;48.36;101368.97;5044420;28;1039;-47
2023/01/15 12:14:14;;;;;;;;;;;;;;;15.11;48.46;101362.66;5058880;28;1000;-43
2023/01/15 12:16:40;;;;;;;;;;;;;;;14.94;47.74;101354.44;5066137;28;873;-46
2023/01/15 12:19:08;;;;;;;;;;;;;;;15.92;47.63;101353.13;5064773;28;1055;-45
2023/01/15 12:21:49;;;;;;;;;;;;;;;15.21;48.52;101356.50;5078751;28;1910;-45
2023/01/15 12:24:41;;;;;;;;;;;;;;;15.72;48.54;101353.66;5065223;28;1035;-44
2023/01/15 12:27:10;;;;;;;;;;;;;;;15.63;48.82;101353.28;5033624;28;1255;-43
2023/01/15 12:29:49;;;;;;;;;;;;;;;15.23;48.75;101354.31;5059205;28;1095;-47
2023/01/15 12:32:18;;;;;;;;;;;;;;;16.29;47.47;101352.47;5054208;28;1048;-43
2023/01/15 12:34:50;;;;;;;;;;;;;;;15.38;48.75;101351.81;5040962;28;1035;-48
2023/01/15 12:37:33;;;;;;;;;;;;;;;15.11;48.39;101351.69;5061140;28;1060;-48
2023/01/15 12:40:14;;;;;;;;;;;;;;;14.94;47.72;101343.47;5076178;28;1203;-46
2023/01/15 12:45:44;;;;;;;;;;;;;;;15.24;48.58;101353.25;5060966;28;1180;-44
2023/01/15 12:48:14;;;;;;;;;;;;;;;15.09;48.03;101347.53;5059070;28;1271;-45
2023/01/15 12:50:44;;;;;;;;;;;;;;;15.51;48.89;101356.09;5059895;28;1175;-48
2023/01/15 12:53:29;;;;;;;;;;;;;;;15.04;48.61;101349.09;5054833;28;997;-47
2023/01/15 12:55:54;;;;;;;;;;;;;;;16.29;47.23;101344.25;5068126;28;1203;-47
2023/01/15 12:58:25;;;;;;;;;;;;;;;15.36;48.82;101351.25;5061092;28;1114;-46
2023/01/15 13:00:51;;;;;;;;;;;;;;;15.11;48.49;101338.00;5050091;28;1108;-44
2023/01/15 13:03:23;;;;;;;;;;;;;;;14.93;47.85;101347.28;5056615;28;1976;-45
2023/01/15 13:05:54;;;;;;;;;;;;;;;15.96;47.60;101326.84;5048746;28;1171;-45
2023/01/15 13:08:24;;;;;;;;;;;;;;;15.06;49.00;101333.25;5063938;28;1083;-45
2023/01/15 13:10:50;;;;;;;;;;;;;;;15.35;48.63;101337.81;5059245;28;1043;-46
2023/01/15 13:13:16;;;;;;;;;;;;;;;15.72;48.42;101327.09;5077233;28;1044;-48
2023/01/15 13:15:50;;;;;;;;;;;;;;;15.20;48.65;101330.19;5065280;28;1186;-48
2023/01/15 13:18:18;;;;;;;;;;;;;;;16.14;47.60;101327.59;5057385;28;1032;-45
2023/01/15 13:20:49;;;;;;;;;;;;;;;15.54;48.96;101321.88;5040421;28;1017;-47
2023/01/15 13:23:33;;;;;;;;;;;;;;;17.20;46.11;101317.06;5051733;28;1930;-48
2023/01/15 13:26:17;;;;;;;;;;;;;;;16.70;47.45;101330.91;5061320;28;1048;-45
2023/01/15 13:28:56;;;;;;;;;;;;;;;15.70;49.16;101322.94;5064076;28;969;-48
2023/01/15 13:31:40;;;;;;;;;;;;;;;15.40;48.54;101321.41;5076213;28;1126;-46
2023/01/15 13:34:07;;;;;;;;;;;;;;;15.37;47.64;101321.94;5059166;28;1063;-48
2023/01/15 13:36:36;;;;;;;;;;;;;;;15.17;47.46;101319.72;5077630;28;1174;-48
2023/01/15 13:39:02;;;;;;;;;;;;;;;16.39;47.74;101322.38;5048159;28;1004;-48
2023/01/15 13:44:15;;;;;;;;;;;;;;;15.24;48.16;101323.13;5059806;28;1248;-47
2023/01/15 13:46:40;;;;;;;;;;;;;;;16.16;48.03;101317.19;5058058;28;1040;-46
2023/01/15 13:49:13;;;;;;;;;;;;;;;15.38;48.71;101321.66;5051084;28;1083;-48